sensor_id;sensor_type;location;lat;lon;timestamp;pressure;altitude;pressure_sealevel;temperature;humidity
71907;BME280;59781;52.090;5.030;2023-07-13T00:00:04;101308.66;;;18.04;100.00
71907;BME280;59781;52.090;5.030;2023-07-13T00:02:34;101311.78;;;18.08;100.00
71907;BME280;59781;52.090;5.030;2023-07-13T00:05:00;101307.41;;;18.00;100.00
71907;BME280;59781;52.090;5.030;2023-07-13T00:07:26;101309.25;;;17.87;100.00
71907;BME280;59781;52.090;5.030;2023-07-13T00:09:52;101308.66;;;18.04;100.00
71907;BME280;59781;52.090;5.030;2023-07-13T00:12:29;101302.13;;;17.86;100.00
71907;BME280;59781;52.090;5.030;2023-07-13T00:14:58;101310.09;;;17.87;100.00
71907;BME280;59781;52.090;5.030;2023-07-13T00:17:28;101306.47;;;17.67;100.00
71907;BME280;59781;52.090;5.030;2023-07-13T00:19:55;101312.75;;;17.67;100.00
71907;BME280;59781;52.090;5.030;2023-07-13T00:22:22;101304.97;;;17.58;100.00
71907;BME280;59781;52.090;5.030;2023-07-13T00:24:52;101311.88;;;17.54;100.00
71907;BME280;59781;52.090;5.030;2023-07-13T00:27:18;101317.75;;;17.57;100.00
71907;BME280;59781;52.090;5.030;2023-07-13T00:29:45;101312.94;;;17.53;100.00
71907;BME280;59781;52.090;5.030;2023-07-13T00:32:11;101326.97;;;17.02;100.00
71907;BME280;59781;52.090;5.030;2023-07-13T00:34:38;101324.91;;;17.10;100.00
71907;BME280;59781;52.090;5.030;2023-07-13T00:37:05;101308.66;;;17.30;100.00
71907;BME280;59781;52.090;5.030;2023-07-13T00:39:34;101306.78;;;17.24;100.00
71907;BME280;59781;52.090;5.030;2023-07-13T00:42:02;101301.75;;;17.21;100.00
71907;BME280;59781;52.090;5.030;2023-07-13T00:44:29;101306.50;;;16.71;100.00
71907;BME280;59781;52.090;5.030;2023-07-13T00:46:54;101315.22;;;16.95;100.00
71907;BME280;59781;52.090;5.030;2023-07-13T00:49:25;101308.41;;;17.12;100.00
71907;BME280;59781;52.090;5.030;2023-07-13T00:52:10;101315.72;;;17.11;100.00
71907;BME280;59781;52.090;5.030;2023-07-13T00:54:39;101316.41;;;17.27;100.00
71907;BME280;59781;52.090;5.030;2023-07-13T00:57:12;101327.44;;;17.12;100.00
71907;BME280;59781;52.090;5.030;2023-07-13T00:59:47;101320.41;;;16.89;100.00
71907;BME280;59781;52.090;5.030;2023-07-13T01:02:17;101324.31;;;16.74;100.00
71907;BME280;59781;52.090;5.030;2023-07-13T01:04:43;101319.38;;;17.32;100.00
71907;BME280;59781;52.090;5.030;2023-07-13T01:07:12;101324.44;;;17.00;100.00
71907;BME280;59781;52.090;5.030;2023-07-13T01:09:38;101325.16;;;16.81;100.00
71907;BME280;59781;52.090;5.030;2023-07-13T01:12:04;101333.25;;;17.02;100.00
71907;BME280;59781;52.090;5.030;2023-07-13T01:14:30;101320.91;;;17.06;100.00
71907;BME280;59781;52.090;5.030;2023-07-13T01:16:56;101330.19;;;17.18;100.00
71907;BME280;59781;52.090;5.030;2023-07-13T01:19:36;101325.91;;;16.96;100.00
71907;BME280;59781;52.090;5.030;2023-07-13T01:22:11;101323.19;;;16.96;100.00
71907;BME280;59781;52.090;5.030;2023-07-13T01:24:41;101316.28;;;17.00;100.00
71907;BME280;59781;52.090;5.030;2023-07-13T01:27:11;101325.22;;;16.87;100.00
71907;BME280;59781;52.090;5.030;2023-07-13T01:29:41;101326.50;;;16.91;100.00
71907;BME280;59781;52.090;5.030;2023-07-13T01:32:14;101334.16;;;16.75;100.00
71907;BME280;59781;52.090;5.030;2023-07-13T01:34:48;101338.78;;;16.81;100.00
71907;BME280;59781;52.090;5.030;2023-07-13T01:37:16;101334.47;;;16.93;100.00
71907;BME280;59781;52.090;5.030;2023-07-13T01:39:42;101335.66;;;16.84;100.00
71907;BME280;59781;52.090;5.030;2023-07-13T01:42:08;101345.03;;;16.75;100.00
71907;BME280;59781;52.090;5.030;2023-07-13T01:44:34;101339.59;;;16.75;100.00
71907;BME280;59781;52.090;5.030;2023-07-13T01:47:01;101345.25;;;16.80;100.00
71907;BME280;59781;52.090;5.030;2023-07-13T01:49:28;101341.13;;;16.84;100.00
71907;BME280;59781;52.090;5.030;2023-07-13T01:51:53;101343.09;;;16.69;100.00
71907;BME280;59781;52.090;5.030;2023-07-13T01:54:19;101344.88;;;16.61;100.00
71907;BME280;59781;52.090;5.030;2023-07-13T01:56:45;101357.41;;;16.56;100.00
71907;BME280;59781;52.090;5.030;2023-07-13T01:59:10;101362.44;;;16.59;100.00
71907;BME280;59781;52.090;5.030;2023-07-13T02:01:36;101360.63;;;16.66;100.00
71907;BME280;59781;52.090;5.030;2023-07-13T02:04:02;101361.41;;;16.60;100.00
71907;BME280;59781;52.090;5.030;2023-07-13T02:06:32;101358.72;;;16.39;100.00
71907;BME280;59781;52.090;5.030;2023-07-13T02:08:59;101354.69;;;16.28;100.00
71907;BME280;59781;52.090;5.030;2023-07-13T02:11:25;101360.69;;;16.45;100.00
71907;BME280;59781;52.090;5.030;2023-07-13T02:13:59;101364.25;;;16.45;100.00
71907;BME280;59781;52.090;5.030;2023-07-13T02:16:27;101361.28;;;16.68;100.00
71907;BME280;59781;52.090;5.030;2023-07-13T02:18:53;101359.13;;;16.35;100.00
71907;BME280;59781;52.090;5.030;2023-07-13T02:21:22;101364.50;;;16.29;100.00
71907;BME280;59781;52.090;5.030;2023-07-13T02:23:48;101359.91;;;16.29;100.00
71907;BME280;59781;52.090;5.030;2023-07-13T02:26:15;101359.03;;;16.50;100.00
71907;BME280;59781;52.090;5.030;2023-07-13T02:28:41;101364.63;;;16.42;100.00
71907;BME280;59781;52.090;5.030;2023-07-13T02:31:09;101370.59;;;16.10;100.00
71907;BME280;59781;52.090;5.030;2023-07-13T02:33:37;101369.53;;;16.32;100.00
71907;BME280;59781;52.090;5.030;2023-07-13T02:36:03;101364.78;;;16.13;100.00
71907;BME280;59781;52.090;5.030;2023-07-13T02:38:31;101372.66;;;16.29;100.00
71907;BME280;59781;52.090;5.030;2023-07-13T02:41:01;101369.94;;;16.29;100.00
71907;BME280;59781;52.090;5.030;2023-07-13T02:43:28;101367.34;;;16.42;100.00
71907;BME280;59781;52.090;5.030;2023-07-13T02:45:53;101372.47;;;16.52;100.00
71907;BME280;59781;52.090;5.030;2023-07-13T02:48:19;101366.75;;;16.47;100.00
71907;BME280;59781;52.090;5.030;2023-07-13T02:50:45;101379.25;;;16.41;100.00
71907;BME280;59781;52.090;5.030;2023-07-13T02:53:11;101377.66;;;16.04;100.00
71907;BME280;59781;52.090;5.030;2023-07-13T02:55:37;101371.31;;;16.18;100.00
71907;BME280;59781;52.090;5.030;2023-07-13T02:58:03;101362.91;;;16.34;100.00
71907;BME280;59781;52.090;5.030;2023-07-13T03:00:28;101368.09;;;16.08;100.00
71907;BME280;59781;52.090;5.030;2023-07-13T03:02:54;101365.88;;;16.18;100.00
71907;BME280;59781;52.090;5.030;2023-07-13T03:05:23;101370.28;;;16.19;100.00
71907;BME280;59781;52.090;5.030;2023-07-13T03:07:49;101375.59;;;16.27;100.00
71907;BME280;59781;52.090;5.030;2023-07-13T03:10:16;101377.50;;;16.12;100.00
71907;BME280;59781;52.090;5.030;2023-07-13T03:12:47;101380.63;;;16.09;100.00
71907;BME280;59781;52.090;5.030;2023-07-13T03:15:20;101383.47;;;16.01;100.00
71907;BME280;59781;52.090;5.030;2023-07-13T03:17:48;101376.84;;;16.03;100.00
71907;BME280;59781;52.090;5.030;2023-07-13T03:20:14;101372.03;;;16.05;100.00
71907;BME280;59781;52.090;5.030;2023-07-13T03:22:40;101367.56;;;16.19;100.00
71907;BME280;59781;52.090;5.030;2023-07-13T03:25:07;101371.00;;;16.06;100.00
71907;BME280;59781;52.090;5.030;2023-07-13T03:27:33;101365.34;;;16.29;100.00
71907;BME280;59781;52.090;5.030;2023-07-13T03:29:59;101378.38;;;16.34;100.00
71907;BME280;59781;52.090;5.030;2023-07-13T03:32:24;101380.97;;;16.49;100.00
71907;BME280;59781;52.090;5.030;2023-07-13T03:34:50;101376.00;;;16.52;100.00
71907;BME280;59781;52.090;5.030;2023-07-13T03:37:16;101385.34;;;16.22;100.00
71907;BME280;59781;52.090;5.030;2023-07-13T03:39:42;101397.84;;;15.95;100.00
71907;BME280;59781;52.090;5.030;2023-07-13T03:42:08;101387.63;;;16.18;100.00
71907;BME280;59781;52.090;5.030;2023-07-13T03:44:35;101381.09;;;16.34;100.00
71907;BME280;59781;52.090;5.030;2023-07-13T03:47:02;101386.59;;;15.98;100.00
71907;BME280;59781;52.090;5.030;2023-07-13T03:49:28;101396.34;;;16.35;100.00
71907;BME280;59781;52.090;5.030;2023-07-13T03:51:54;101388.00;;;15.94;100.00
71907;BME280;59781;52.090;5.030;2023-07-13T03:54:20;101396.25;;;15.64;100.00
71907;BME280;59781;52.090;5.030;2023-07-13T03:56:46;101398.06;;;15.78;100.00
71907;BME280;59781;52.090;5.030;2023-07-13T03:59:12;101402.44;;;16.16;100.00
71907;BME280;59781;52.090;5.030;2023-07-13T04:01:37;101404.16;;;15.81;100.00
71907;BME280;59781;52.090;5.030;2023-07-13T04:04:03;101413.56;;;15.99;100.00
71907;BME280;59781;52.090;5.030;2023-07-13T04:06:32;101412.81;;;15.91;100.00
71907;BME280;59781;52.090;5.030;2023-07-13T04:09:00;101424.22;;;16.01;100.00
71907;BME280;59781;52.090;5.030;2023-07-13T04:11:30;101417.81;;;15.87;100.00
71907;BME280;59781;52.090;5.030;2023-07-13T04:13:57;101421.91;;;15.98;100.00
71907;BME280;59781;52.090;5.030;2023-07-13T04:16:23;101422.91;;;15.75;100.00
71907;BME280;59781;52.090;5.030;2023-07-13T04:18:49;101419.50;;;15.88;100.00
71907;BME280;59781;52.090;5.030;2023-07-13T04:21:20;101428.09;;;15.92;100.00
71907;BME280;59781;52.090;5.030;2023-07-13T04:23:46;101429.09;;;16.05;100.00
71907;BME280;59781;52.090;5.030;2023-07-13T04:26:12;101418.97;;;15.99;100.00
71907;BME280;59781;52.090;5.030;2023-07-13T04:28:37;101423.25;;;16.09;100.00
71907;BME280;59781;52.090;5.030;2023-07-13T04:31:03;101425.31;;;15.85;100.00
71907;BME280;59781;52.090;5.030;2023-07-13T04:33:29;101434.06;;;16.02;100.00
71907;BME280;59781;52.090;5.030;2023-07-13T04:35:56;101429.34;;;16.11;100.00
71907;BME280;59781;52.090;5.030;2023-07-13T04:38:27;101437.09;;;16.56;100.00
71907;BME280;59781;52.090;5.030;2023-07-13T04:40:56;101437.13;;;16.35;100.00
71907;BME280;59781;52.090;5.030;2023-07-13T04:43:23;101437.50;;;16.32;100.00
71907;BME280;59781;52.090;5.030;2023-07-13T04:45:51;101435.66;;;16.32;100.00
71907;BME280;59781;52.090;5.030;2023-07-13T04:48:17;101439.53;;;16.23;100.00
71907;BME280;59781;52.090;5.030;2023-07-13T04:50:43;101434.81;;;16.60;100.00
71907;BME280;59781;52.090;5.030;2023-07-13T04:53:10;101436.03;;;16.72;100.00
71907;BME280;59781;52.090;5.030;2023-07-13T04:55:37;101441.50;;;16.79;100.00
71907;BME280;59781;52.090;5.030;2023-07-13T04:58:05;101438.09;;;16.49;100.00
71907;BME280;59781;52.090;5.030;2023-07-13T05:00:31;101445.47;;;16.76;100.00
71907;BME280;59781;52.090;5.030;2023-07-13T05:02:58;101436.81;;;16.94;100.00
71907;BME280;59781;52.090;5.030;2023-07-13T05:05:25;101439.69;;;17.14;100.00
71907;BME280;59781;52.090;5.030;2023-07-13T05:07:53;101429.31;;;17.31;100.00
71907;BME280;59781;52.090;5.030;2023-07-13T05:10:19;101434.56;;;17.32;100.00
71907;BME280;59781;52.090;5.030;2023-07-13T05:12:45;101435.44;;;17.46;100.00
71907;BME280;59781;52.090;5.030;2023-07-13T05:15:11;101444.16;;;17.00;100.00
71907;BME280;59781;52.090;5.030;2023-07-13T05:17:37;101444.09;;;17.56;100.00
71907;BME280;59781;52.090;5.030;2023-07-13T05:20:05;101442.34;;;17.42;100.00
71907;BME280;59781;52.090;5.030;2023-07-13T05:22:31;101445.13;;;17.55;100.00
71907;BME280;59781;52.090;5.030;2023-07-13T05:24:57;101448.44;;;17.85;100.00
71907;BME280;59781;52.090;5.030;2023-07-13T05:27:22;101443.31;;;18.23;100.00
71907;BME280;59781;52.090;5.030;2023-07-13T05:29:49;101439.16;;;18.60;100.00
71907;BME280;59781;52.090;5.030;2023-07-13T05:32:15;101445.00;;;18.57;100.00
71907;BME280;59781;52.090;5.030;2023-07-13T05:34:41;101445.22;;;18.56;100.00
71907;BME280;59781;52.090;5.030;2023-07-13T05:37:07;101448.00;;;18.69;100.00
71907;BME280;59781;52.090;5.030;2023-07-13T05:39:33;101446.34;;;18.68;100.00
71907;BME280;59781;52.090;5.030;2023-07-13T05:41:59;101447.38;;;18.74;100.00
71907;BME280;59781;52.090;5.030;2023-07-13T05:44:24;101455.06;;;19.23;100.00
71907;BME280;59781;52.090;5.030;2023-07-13T05:46:50;101447.31;;;19.13;100.00
71907;BME280;59781;52.090;5.030;2023-07-13T05:49:16;101440.50;;;19.56;100.00
71907;BME280;59781;52.090;5.030;2023-07-13T05:51:41;101444.06;;;19.69;100.00
71907;BME280;59781;52.090;5.030;2023-07-13T05:54:07;101457.47;;;19.77;100.00
71907;BME280;59781;52.090;5.030;2023-07-13T05:56:33;101455.25;;;20.06;100.00
71907;BME280;59781;52.090;5.030;2023-07-13T05:58:58;101451.25;;;20.02;100.00
71907;BME280;59781;52.090;5.030;2023-07-13T06:01:24;101449.97;;;20.43;100.00
71907;BME280;59781;52.090;5.030;2023-07-13T06:03:50;101446.19;;;20.37;100.00
71907;BME280;59781;52.090;5.030;2023-07-13T06:06:16;101452.97;;;20.66;100.00
71907;BME280;59781;52.090;5.030;2023-07-13T06:08:42;101457.94;;;20.44;100.00
71907;BME280;59781;52.090;5.030;2023-07-13T06:11:14;101466.53;;;20.16;100.00
71907;BME280;59781;52.090;5.030;2023-07-13T06:13:41;101472.84;;;19.65;100.00
71907;BME280;59781;52.090;5.030;2023-07-13T06:16:07;101482.34;;;19.49;100.00
71907;BME280;59781;52.090;5.030;2023-07-13T06:18:35;101482.13;;;19.51;100.00
71907;BME280;59781;52.090;5.030;2023-07-13T06:21:14;101484.72;;;19.97;100.00
71907;BME280;59781;52.090;5.030;2023-07-13T06:23:42;101476.88;;;19.56;100.00
71907;BME280;59781;52.090;5.030;2023-07-13T06:26:10;101481.16;;;19.06;100.00
71907;BME280;59781;52.090;5.030;2023-07-13T06:28:36;101479.19;;;19.46;100.00
71907;BME280;59781;52.090;5.030;2023-07-13T06:31:06;101478.97;;;20.05;100.00
71907;BME280;59781;52.090;5.030;2023-07-13T06:33:34;101475.28;;;20.63;100.00
71907;BME280;59781;52.090;5.030;2023-07-13T06:36:02;101492.19;;;19.64;100.00
71907;BME280;59781;52.090;5.030;2023-07-13T06:38:29;101496.88;;;19.57;100.00
71907;BME280;59781;52.090;5.030;2023-07-13T06:40:55;101504.44;;;19.15;100.00
71907;BME280;59781;52.090;5.030;2023-07-13T06:43:21;101504.88;;;18.85;100.00
71907;BME280;59781;52.090;5.030;2023-07-13T06:45:48;101522.44;;;18.50;100.00
71907;BME280;59781;52.090;5.030;2023-07-13T06:48:15;101538.94;;;18.28;100.00
71907;BME280;59781;52.090;5.030;2023-07-13T06:50:42;101555.44;;;18.00;100.00
71907;BME280;59781;52.090;5.030;2023-07-13T06:53:10;101562.47;;;17.88;100.00
71907;BME280;59781;52.090;5.030;2023-07-13T06:55:38;101572.59;;;17.66;100.00
71907;BME280;59781;52.090;5.030;2023-07-13T06:58:04;101563.22;;;17.19;100.00
71907;BME280;59781;52.090;5.030;2023-07-13T07:00:30;101558.59;;;17.13;100.00
71907;BME280;59781;52.090;5.030;2023-07-13T07:02:56;101551.09;;;16.94;100.00
71907;BME280;59781;52.090;5.030;2023-07-13T07:05:22;101554.56;;;17.09;100.00
71907;BME280;59781;52.090;5.030;2023-07-13T07:07:50;101554.50;;;17.24;100.00
71907;BME280;59781;52.090;5.030;2023-07-13T07:10:18;101560.63;;;17.33;100.00
71907;BME280;59781;52.090;5.030;2023-07-13T07:12:44;101561.69;;;17.32;100.00
71907;BME280;59781;52.090;5.030;2023-07-13T07:15:10;101552.69;;;17.38;100.00
71907;BME280;59781;52.090;5.030;2023-07-13T07:17:36;101545.34;;;17.66;100.00
71907;BME280;59781;52.090;5.030;2023-07-13T07:20:03;101546.31;;;17.52;100.00
71907;BME280;59781;52.090;5.030;2023-07-13T07:22:33;101547.31;;;17.44;100.00
71907;BME280;59781;52.090;5.030;2023-07-13T07:24:59;101547.88;;;17.68;100.00
71907;BME280;59781;52.090;5.030;2023-07-13T07:27:25;101541.94;;;18.47;100.00
71907;BME280;59781;52.090;5.030;2023-07-13T07:29:50;101535.53;;;18.74;100.00
71907;BME280;59781;52.090;5.030;2023-07-13T07:32:16;101543.06;;;18.66;100.00
71907;BME280;59781;52.090;5.030;2023-07-13T07:34:42;101544.38;;;18.89;100.00
71907;BME280;59781;52.090;5.030;2023-07-13T07:37:11;101558.34;;;18.53;100.00
71907;BME280;59781;52.090;5.030;2023-07-13T07:39:39;101557.81;;;19.37;100.00
71907;BME280;59781;52.090;5.030;2023-07-13T07:42:05;101541.81;;;19.67;100.00
71907;BME280;59781;52.090;5.030;2023-07-13T07:44:31;101532.66;;;20.00;100.00
71907;BME280;59781;52.090;5.030;2023-07-13T07:46:58;101527.16;;;20.83;100.00
71907;BME280;59781;52.090;5.030;2023-07-13T07:49:24;101529.19;;;21.62;100.00
71907;BME280;59781;52.090;5.030;2023-07-13T07:51:50;101521.38;;;21.66;100.00
71907;BME280;59781;52.090;5.030;2023-07-13T07:54:17;101516.25;;;21.69;100.00
71907;BME280;59781;52.090;5.030;2023-07-13T07:56:43;101519.97;;;20.12;100.00
71907;BME280;59781;52.090;5.030;2023-07-13T07:59:09;101528.59;;;19.31;100.00
71907;BME280;59781;52.090;5.030;2023-07-13T08:01:35;101530.47;;;19.51;100.00
71907;BME280;59781;52.090;5.030;2023-07-13T08:04:01;101541.31;;;19.90;100.00
71907;BME280;59781;52.090;5.030;2023-07-13T08:06:27;101529.53;;;21.04;100.00
71907;BME280;59781;52.090;5.030;2023-07-13T08:08:52;101524.47;;;19.93;100.00
71907;BME280;59781;52.090;5.030;2023-07-13T08:11:21;101531.91;;;19.46;100.00
71907;BME280;59781;52.090;5.030;2023-07-13T08:13:47;101533.44;;;18.83;100.00
71907;BME280;59781;52.090;5.030;2023-07-13T08:16:14;101527.56;;;18.79;100.00
71907;BME280;59781;52.090;5.030;2023-07-13T08:18:40;101546.75;;;18.45;100.00
71907;BME280;59781;52.090;5.030;2023-07-13T08:21:07;101537.56;;;17.98;100.00
71907;BME280;59781;52.090;5.030;2023-07-13T08:23:35;101534.72;;;17.71;100.00
71907;BME280;59781;52.090;5.030;2023-07-13T08:26:01;101542.16;;;17.56;100.00
71907;BME280;59781;52.090;5.030;2023-07-13T08:28:30;101543.47;;;18.01;100.00
71907;BME280;59781;52.090;5.030;2023-07-13T08:31:05;101538.50;;;18.18;100.00
71907;BME280;59781;52.090;5.030;2023-07-13T08:33:35;101549.97;;;18.00;100.00
71907;BME280;59781;52.090;5.030;2023-07-13T08:36:01;101565.03;;;17.90;100.00
71907;BME280;59781;52.090;5.030;2023-07-13T08:38:27;101567.03;;;17.74;100.00
71907;BME280;59781;52.090;5.030;2023-07-13T08:40:55;101557.38;;;17.72;100.00
71907;BME280;59781;52.090;5.030;2023-07-13T08:43:28;101555.69;;;17.71;100.00
71907;BME280;59781;52.090;5.030;2023-07-13T08:46:04;101559.16;;;17.93;100.00
71907;BME280;59781;52.090;5.030;2023-07-13T08:48:41;101545.19;;;19.43;100.00
71907;BME280;59781;52.090;5.030;2023-07-13T08:51:33;101534.00;;;20.29;100.00
71907;BME280;59781;52.090;5.030;2023-07-13T08:54:37;101527.03;;;21.28;100.00
71907;BME280;59781;52.090;5.030;2023-07-13T08:57:14;101524.59;;;22.59;100.00
71907;BME280;59781;52.090;5.030;2023-07-13T08:59:44;101504.78;;;22.69;100.00
71907;BME280;59781;52.090;5.030;2023-07-13T09:02:26;101514.91;;;22.87;100.00
71907;BME280;59781;52.090;5.030;2023-07-13T09:05:18;101526.84;;;22.02;100.00
71907;BME280;59781;52.090;5.030;2023-07-13T09:10:58;101521.41;;;21.16;100.00
71907;BME280;59781;52.090;5.030;2023-07-13T09:14:22;101500.16;;;22.10;100.00
71907;BME280;59781;52.090;5.030;2023-07-13T09:16:16;101494.34;;;22.89;100.00
71907;BME280;59781;52.090;5.030;2023-07-13T09:18:49;101538.84;;;20.97;100.00
71907;BME280;59781;52.090;5.030;2023-07-13T09:21:25;101580.28;;;19.33;100.00
71907;BME280;59781;52.090;5.030;2023-07-13T09:24:03;101582.38;;;17.82;100.00
71907;BME280;59781;52.090;5.030;2023-07-13T09:26:56;101593.97;;;17.13;100.00
71907;BME280;59781;52.090;5.030;2023-07-13T09:29:33;101601.41;;;17.26;100.00
71907;BME280;59781;52.090;5.030;2023-07-13T09:32:07;101606.03;;;17.54;100.00
71907;BME280;59781;52.090;5.030;2023-07-13T09:34:38;101599.41;;;17.91;100.00
71907;BME280;59781;52.090;5.030;2023-07-13T09:37:04;101588.41;;;18.19;100.00
71907;BME280;59781;52.090;5.030;2023-07-13T09:39:40;101593.31;;;18.98;100.00
71907;BME280;59781;52.090;5.030;2023-07-13T09:44:38;101581.78;;;20.26;100.00
71907;BME280;59781;52.090;5.030;2023-07-13T09:47:21;101582.97;;;22.00;100.00
71907;BME280;59781;52.090;5.030;2023-07-13T09:50:03;101578.75;;;22.82;100.00
71907;BME280;59781;52.090;5.030;2023-07-13T09:52:48;101561.91;;;23.32;100.00
71907;BME280;59781;52.090;5.030;2023-07-13T09:55:29;101558.53;;;23.89;100.00
71907;BME280;59781;52.090;5.030;2023-07-13T09:58:08;101569.81;;;23.75;100.00
71907;BME280;59781;52.090;5.030;2023-07-13T10:00:36;101596.97;;;21.92;100.00
71907;BME280;59781;52.090;5.030;2023-07-13T10:03:17;101595.88;;;20.75;100.00
71907;BME280;59781;52.090;5.030;2023-07-13T10:05:50;101589.72;;;20.48;100.00
71907;BME280;59781;52.090;5.030;2023-07-13T10:08:29;101591.44;;;20.29;100.00
71907;BME280;59781;52.090;5.030;2023-07-13T10:11:01;101597.50;;;20.44;100.00
71907;BME280;59781;52.090;5.030;2023-07-13T10:13:37;101608.81;;;19.96;100.00
71907;BME280;59781;52.090;5.030;2023-07-13T10:16:09;101598.75;;;21.43;100.00
71907;BME280;59781;52.090;5.030;2023-07-13T10:18:41;101591.22;;;22.67;100.00
71907;BME280;59781;52.090;5.030;2023-07-13T10:21:23;101583.09;;;22.90;100.00
71907;BME280;59781;52.090;5.030;2023-07-13T10:24:22;101588.81;;;22.58;100.00
71907;BME280;59781;52.090;5.030;2023-07-13T10:32:26;101588.00;;;24.40;100.00
71907;BME280;59781;52.090;5.030;2023-07-13T10:34:52;101584.72;;;23.56;100.00
71907;BME280;59781;52.090;5.030;2023-07-13T10:37:26;101580.31;;;23.32;100.00
71907;BME280;59781;52.090;5.030;2023-07-13T10:39:56;101581.09;;;23.09;100.00
71907;BME280;59781;52.090;5.030;2023-07-13T10:42:38;101583.75;;;23.97;100.00
71907;BME280;59781;52.090;5.030;2023-07-13T10:45:15;101583.66;;;24.44;100.00
71907;BME280;59781;52.090;5.030;2023-07-13T10:47:49;101590.22;;;24.55;100.00
71907;BME280;59781;52.090;5.030;2023-07-13T10:50:28;101591.59;;;24.69;100.00
71907;BME280;59781;52.090;5.030;2023-07-13T10:53:19;101588.91;;;24.06;100.00
71907;BME280;59781;52.090;5.030;2023-07-13T11:01:08;101604.38;;;22.65;100.00
71907;BME280;59781;52.090;5.030;2023-07-13T11:03:47;101602.00;;;23.63;100.00
71907;BME280;59781;52.090;5.030;2023-07-13T11:11:36;101596.09;;;23.95;100.00
71907;BME280;59781;52.090;5.030;2023-07-13T11:14:25;101599.13;;;22.93;100.00
71907;BME280;59781;52.090;5.030;2023-07-13T11:16:54;101598.00;;;22.34;100.00
71907;BME280;59781;52.090;5.030;2023-07-13T11:24:58;101607.53;;;21.95;100.00
71907;BME280;59781;52.090;5.030;2023-07-13T11:27:37;101597.28;;;23.52;100.00
71907;BME280;59781;52.090;5.030;2023-07-13T11:33:24;101608.66;;;22.90;100.00
71907;BME280;59781;52.090;5.030;2023-07-13T11:36:14;101588.94;;;24.46;100.00
71907;BME280;59781;52.090;5.030;2023-07-13T11:38:58;101592.50;;;25.54;100.00
71907;BME280;59781;52.090;5.030;2023-07-13T11:41:44;101596.44;;;25.58;100.00
71907;BME280;59781;52.090;5.030;2023-07-13T11:44:20;101604.03;;;25.67;100.00
71907;BME280;59781;52.090;5.030;2023-07-13T11:46:55;101602.13;;;25.51;100.00
71907;BME280;59781;52.090;5.030;2023-07-13T11:49:29;101599.63;;;25.50;97.31
71907;BME280;59781;52.090;5.030;2023-07-13T11:51:57;101599.78;;;26.37;92.76
71907;BME280;59781;52.090;5.030;2023-07-13T11:54:31;101606.13;;;25.27;100.00
71907;BME280;59781;52.090;5.030;2023-07-13T11:57:17;101614.41;;;25.10;100.00
71907;BME280;59781;52.090;5.030;2023-07-13T12:00:09;101617.13;;;25.94;100.00
71907;BME280;59781;52.090;5.030;2023-07-13T12:02:45;101611.28;;;26.51;100.00
71907;BME280;59781;52.090;5.030;2023-07-13T12:05:16;101610.72;;;25.04;100.00
71907;BME280;59781;52.090;5.030;2023-07-13T12:07:47;101613.09;;;26.01;100.00
71907;BME280;59781;52.090;5.030;2023-07-13T12:10:23;101606.00;;;24.59;100.00
71907;BME280;59781;52.090;5.030;2023-07-13T12:13:00;101609.13;;;23.88;100.00
71907;BME280;59781;52.090;5.030;2023-07-13T12:15:43;101610.53;;;24.14;100.00
71907;BME280;59781;52.090;5.030;2023-07-13T12:18:23;101605.81;;;25.40;100.00
71907;BME280;59781;52.090;5.030;2023-07-13T12:20:58;101598.53;;;26.06;85.37
71907;BME280;59781;52.090;5.030;2023-07-13T12:23:30;101597.63;;;26.00;94.92
71907;BME280;59781;52.090;5.030;2023-07-13T12:26:00;101603.50;;;26.26;83.65
71907;BME280;59781;52.090;5.030;2023-07-13T12:28:35;101606.28;;;25.87;88.57
71907;BME280;59781;52.090;5.030;2023-07-13T12:31:31;101617.94;;;26.33;89.60
71907;BME280;59781;52.090;5.030;2023-07-13T12:34:18;101615.31;;;25.66;91.03
71907;BME280;59781;52.090;5.030;2023-07-13T12:39:37;101622.56;;;26.06;81.68
71907;BME280;59781;52.090;5.030;2023-07-13T12:42:19;101614.06;;;25.90;86.29
71907;BME280;59781;52.090;5.030;2023-07-13T12:47:22;101611.38;;;26.61;82.51
71907;BME280;59781;52.090;5.030;2023-07-13T12:49:53;101601.38;;;25.39;86.85
71907;BME280;59781;52.090;5.030;2023-07-13T12:52:24;101612.41;;;25.39;88.95
71907;BME280;59781;52.090;5.030;2023-07-13T12:55:14;101605.25;;;26.81;83.16
71907;BME280;59781;52.090;5.030;2023-07-13T13:00:29;101606.88;;;26.11;80.37
71907;BME280;59781;52.090;5.030;2023-07-13T13:03:32;101612.84;;;26.25;81.78
71907;BME280;59781;52.090;5.030;2023-07-13T13:06:22;101619.25;;;26.47;81.88
71907;BME280;59781;52.090;5.030;2023-07-13T13:08:58;101621.25;;;25.74;80.85
71907;BME280;59781;52.090;5.030;2023-07-13T13:11:26;101630.84;;;24.76;86.91
71907;BME280;59781;52.090;5.030;2023-07-13T13:13:54;101623.63;;;23.83;91.47
71907;BME280;59781;52.090;5.030;2023-07-13T13:18:53;101637.91;;;24.44;88.59
71907;BME280;59781;52.090;5.030;2023-07-13T13:21:23;101627.66;;;24.16;92.75
71907;BME280;59781;52.090;5.030;2023-07-13T13:23:52;101637.44;;;24.75;100.00
71907;BME280;59781;52.090;5.030;2023-07-13T13:26:23;101638.00;;;24.77;95.42
71907;BME280;59781;52.090;5.030;2023-07-13T13:28:49;101632.41;;;25.01;93.56
71907;BME280;59781;52.090;5.030;2023-07-13T13:31:15;101643.06;;;24.40;100.00
71907;BME280;59781;52.090;5.030;2023-07-13T13:33:43;101638.25;;;24.47;96.39
71907;BME280;59781;52.090;5.030;2023-07-13T13:36:19;101637.41;;;24.47;97.56